createdAt,value
2018-06-22T00:00:31.077Z,2.73
2018-06-22T00:02:59.973Z,2.67
2018-06-22T00:05:28.941Z,3.20
2018-06-22T00:07:57.808Z,3.60
2018-06-22T00:10:26.672Z,2.50
2018-06-22T00:12:55.889Z,3.10
2018-06-22T00:15:24.796Z,2.90
2018-06-22T00:17:53.694Z,2.40
2018-06-22T00:20:22.569Z,2.60
2018-06-22T00:22:51.471Z,2.33
2018-06-22T00:25:20.359Z,2.43
2018-06-22T00:27:49.300Z,2.30
2018-06-22T00:30:18.181Z,2.02
2018-06-22T00:32:47.124Z,1.93
2018-06-22T00:35:16.080Z,3.80
2018-06-22T00:37:44.939Z,1.60
2018-06-22T00:40:13.816Z,1.70
2018-06-22T00:42:42.757Z,2.02
2018-06-22T00:45:11.683Z,2.30
2018-06-22T00:47:41.302Z,1.90
2018-06-22T00:50:10.202Z,1.80
2018-06-22T00:52:39.130Z,3.12
2018-06-22T00:55:08.026Z,2.40
2018-06-22T00:57:36.893Z,3.20
2018-06-22T01:00:06.059Z,2.93
2018-06-22T01:02:34.947Z,3.50
2018-06-22T01:05:03.818Z,3.67
2018-06-22T01:07:32.687Z,4.03
2018-06-22T01:10:01.555Z,4.70
2018-06-22T01:12:30.427Z,1.97
2018-06-22T01:14:59.329Z,2.53
2018-06-22T01:17:28.612Z,2.30
2018-06-22T01:19:57.452Z,2.08
2018-06-22T01:22:26.976Z,2.98
2018-06-22T01:24:55.801Z,2.17
2018-06-22T01:27:24.738Z,2.65
2018-06-22T01:29:53.630Z,2.30
2018-06-22T01:32:22.470Z,2.13
2018-06-22T01:34:51.372Z,2.07
2018-06-22T01:37:20.251Z,2.07
2018-06-22T01:39:49.990Z,1.90
2018-06-22T01:42:18.845Z,1.60
2018-06-22T01:44:47.678Z,2.00
2018-06-22T01:47:16.561Z,2.20
2018-06-22T01:49:45.483Z,1.90
2018-06-22T01:52:14.340Z,1.97
2018-06-22T01:54:43.183Z,1.53
2018-06-22T01:57:12.013Z,2.50
2018-06-22T01:59:40.908Z,1.90
2018-06-22T02:02:09.760Z,2.40
2018-06-22T02:04:38.609Z,2.30
2018-06-22T02:07:07.577Z,2.43
2018-06-22T02:09:36.332Z,2.60
2018-06-22T02:12:05.193Z,2.63
2018-06-22T02:14:34.118Z,2.80
2018-06-22T02:17:02.989Z,2.27
2018-06-22T02:19:31.920Z,2.30
2018-06-22T02:22:00.757Z,2.20
2018-06-22T02:24:29.603Z,2.00
2018-06-22T02:26:58.457Z,2.50
2018-06-22T02:29:27.318Z,2.50
2018-06-22T02:31:56.154Z,2.47
2018-06-22T02:34:25.130Z,1.72
2018-06-22T02:36:53.997Z,2.05
2018-06-22T02:39:23.316Z,2.50
2018-06-22T02:41:52.189Z,2.00
2018-06-22T02:44:21.103Z,1.93
2018-06-22T02:46:50.020Z,1.93
2018-06-22T02:49:18.895Z,1.60
2018-06-22T02:51:47.799Z,1.85
2018-06-22T02:54:16.657Z,1.92
2018-06-22T02:56:45.503Z,2.22
2018-06-22T02:59:14.366Z,1.62
2018-06-22T03:01:43.281Z,1.92
2018-06-22T03:04:12.159Z,1.20
2018-06-22T03:06:41.045Z,1.90
2018-06-22T03:09:10.108Z,1.65
2018-06-22T03:11:38.970Z,1.20
2018-06-22T03:14:07.892Z,1.80
2018-06-22T03:16:36.752Z,1.40
2018-06-22T03:19:05.649Z,1.50
2018-06-22T03:21:34.510Z,2.70
2018-06-22T03:24:03.380Z,1.93
2018-06-22T03:26:32.237Z,1.80
2018-06-22T03:29:01.077Z,1.80
2018-06-22T03:31:35.995Z,1.37
2018-06-22T03:34:05.597Z,1.40
2018-06-22T03:36:34.509Z,1.30
2018-06-22T03:39:03.546Z,1.40
2018-06-22T03:41:32.430Z,1.50
2018-06-22T03:44:01.220Z,1.80
2018-06-22T03:46:30.127Z,1.70
2018-06-22T03:48:59.040Z,1.67
2018-06-22T03:51:27.922Z,1.50
2018-06-22T03:53:56.833Z,1.57
2018-06-22T03:56:25.725Z,1.20
2018-06-22T03:58:54.631Z,1.80
2018-06-22T04:01:23.453Z,1.50
2018-06-22T04:03:52.313Z,1.53
2018-06-22T04:06:21.185Z,1.90
2018-06-22T04:08:50.004Z,1.73
2018-06-22T04:11:18.949Z,1.80
2018-06-22T04:13:47.875Z,1.97
2018-06-22T04:16:16.734Z,1.97
2018-06-22T04:18:45.641Z,2.27
2018-06-22T04:21:14.541Z,1.70
2018-06-22T04:23:43.379Z,2.00
2018-06-22T04:26:12.229Z,1.50
2018-06-22T04:28:41.064Z,1.73
2018-06-22T04:31:10.357Z,1.42
2018-06-22T04:33:39.220Z,1.50
2018-06-22T04:36:08.115Z,1.90
2018-06-22T04:38:37.101Z,1.60
2018-06-22T04:41:06.425Z,1.93
2018-06-22T04:43:35.300Z,1.80
2018-06-22T04:46:04.165Z,1.90
2018-06-22T04:48:33.032Z,2.05
2018-06-22T04:51:01.864Z,1.97
2018-06-22T04:53:30.659Z,2.47
2018-06-22T04:55:59.512Z,1.60
2018-06-22T04:58:28.504Z,1.70
2018-06-22T05:00:57.374Z,1.50
2018-06-22T05:03:26.220Z,1.33
2018-06-22T05:05:55.072Z,1.20
2018-06-22T05:08:23.929Z,1.30
2018-06-22T05:10:52.830Z,1.33
2018-06-22T05:13:21.729Z,1.10
2018-06-22T05:15:50.606Z,1.20
2018-06-22T05:18:20.181Z,1.10
2018-06-22T05:20:49.088Z,0.90
2018-06-22T05:23:17.967Z,1.10
2018-06-22T05:25:46.849Z,1.00
2018-06-22T05:43:21.082Z,1.30
2018-06-22T05:45:49.969Z,1.60
2018-06-22T05:48:18.829Z,1.28
2018-06-22T05:50:47.770Z,1.45
2018-06-22T05:53:16.624Z,1.37
2018-06-22T05:55:45.489Z,1.40
2018-06-22T05:58:14.909Z,1.67
2018-06-22T06:00:43.810Z,2.17
2018-06-22T06:03:12.665Z,1.97
2018-06-22T06:05:41.631Z,1.55
2018-06-22T06:08:10.581Z,1.50
2018-06-22T06:10:39.438Z,1.63
2018-06-22T06:13:08.319Z,1.90
2018-06-22T06:15:37.350Z,1.72
2018-06-22T06:18:06.200Z,1.87
2018-06-22T06:20:36.190Z,1.60
2018-06-22T06:23:05.077Z,1.50
2018-06-22T06:25:33.927Z,1.60
2018-06-22T06:28:02.832Z,1.30
2018-06-22T06:30:33.389Z,1.60
2018-06-22T06:33:02.293Z,1.10
2018-06-22T06:35:31.148Z,2.00
2018-06-22T06:38:00.097Z,1.25
2018-06-22T06:40:29.010Z,2.00
2018-06-22T06:42:57.881Z,1.80
2018-06-22T06:45:26.847Z,2.30
2018-06-22T06:47:55.775Z,2.20
2018-06-22T06:50:24.758Z,2.40
2018-06-22T06:52:54.466Z,2.43
2018-06-22T06:55:24.983Z,2.87
2018-06-22T06:57:54.456Z,2.60
2018-06-22T07:00:25.400Z,2.25
2018-06-22T07:02:54.380Z,2.70
2018-06-22T07:05:23.396Z,2.53
2018-06-22T07:07:52.766Z,2.40
2018-06-22T07:10:23.358Z,2.77
2018-06-22T07:12:52.316Z,2.83
2018-06-22T07:15:21.458Z,2.83
2018-06-22T07:17:51.049Z,2.70
2018-06-22T07:20:20.813Z,2.80
2018-06-22T07:22:49.738Z,2.67
2018-06-22T07:25:20.700Z,2.25
2018-06-22T07:27:56.345Z,2.30
2018-06-22T07:30:28.105Z,1.60
2018-06-22T07:32:57.324Z,1.83
2018-06-22T07:35:26.242Z,1.70
2018-06-22T07:37:55.968Z,1.83
2018-06-22T07:40:24.982Z,1.73
2018-06-22T07:42:54.053Z,2.00
2018-06-22T07:45:22.955Z,2.37
2018-06-22T07:47:52.052Z,2.20
2018-06-22T07:50:21.050Z,2.00
2018-06-22T07:52:50.002Z,1.70
2018-06-22T07:55:19.957Z,2.70
2018-06-22T07:57:49.743Z,2.50
2018-06-22T08:00:19.658Z,2.30
2018-06-22T08:02:48.693Z,2.10
2018-06-22T08:05:17.841Z,2.20
2018-06-22T08:07:46.821Z,2.60
2018-06-22T08:10:15.797Z,2.07
2018-06-22T08:12:45.078Z,2.03
2018-06-22T08:15:14.117Z,2.20
2018-06-22T08:17:43.148Z,2.00
2018-06-22T08:20:12.239Z,2.50
2018-06-22T08:22:41.256Z,2.40
2018-06-22T08:25:10.188Z,2.17
2018-06-22T08:27:39.115Z,1.70
2018-06-22T08:30:08.529Z,2.10
2018-06-22T08:32:37.540Z,2.40
2018-06-22T08:35:06.643Z,2.17
2018-06-22T08:37:35.574Z,2.30
2018-06-22T08:40:04.559Z,2.50
2018-06-22T08:42:33.498Z,2.70
2018-06-22T08:45:02.470Z,2.60
2018-06-22T08:47:36.014Z,2.37
2018-06-22T08:50:05.105Z,2.20
2018-06-22T08:52:34.143Z,1.92
2018-06-22T08:55:03.206Z,2.30
2018-06-22T08:57:32.312Z,2.67
2018-06-22T09:00:01.308Z,2.37
2018-06-22T09:02:30.300Z,2.77
2018-06-22T09:04:59.421Z,2.70
2018-06-22T09:07:28.413Z,2.77
2018-06-22T09:09:57.404Z,3.40
2018-06-22T09:12:26.371Z,3.10
2018-06-22T09:14:55.379Z,2.60
2018-06-22T09:17:24.373Z,2.30
2018-06-22T09:19:53.522Z,2.50
2018-06-22T09:22:22.515Z,2.30
2018-06-22T09:24:51.449Z,2.43
2018-06-22T09:27:20.388Z,2.70
2018-06-22T09:29:49.597Z,3.10
2018-06-22T09:32:18.864Z,2.53
2018-06-22T09:34:47.906Z,2.30
2018-06-22T09:37:17.194Z,2.02
2018-06-22T09:39:46.188Z,2.40
2018-06-22T09:42:15.165Z,2.27
2018-06-22T09:44:44.145Z,2.27
2018-06-22T09:47:13.236Z,2.17
2018-06-22T09:49:42.192Z,2.43
2018-06-22T09:52:11.196Z,3.30
2018-06-22T09:54:40.150Z,1.95
2018-06-22T09:57:09.173Z,1.67
2018-06-22T09:59:38.178Z,2.45
2018-06-22T10:02:07.066Z,2.67
2018-06-22T10:04:35.949Z,2.20
2018-06-22T10:07:05.052Z,2.00
2018-06-22T10:09:34.515Z,1.73
2018-06-22T10:12:03.742Z,2.37
2018-06-22T10:14:32.878Z,2.40
2018-06-22T10:17:01.940Z,2.30
2018-06-22T10:19:31.030Z,2.27
2018-06-22T10:22:00.288Z,2.10
2018-06-22T10:24:29.434Z,1.97
2018-06-22T10:26:58.613Z,1.77
2018-06-22T10:29:27.611Z,1.80
2018-06-22T10:31:56.469Z,2.20
2018-06-22T10:34:25.741Z,2.22
2018-06-22T10:36:54.944Z,2.20
2018-06-22T10:39:24.059Z,2.40
2018-06-22T10:42:06.669Z,2.47
2018-06-22T10:44:35.501Z,2.30
2018-06-22T10:47:04.449Z,2.63
2018-06-22T10:49:33.281Z,2.37
2018-06-22T10:52:02.175Z,2.40
2018-06-22T10:54:31.215Z,2.33
2018-06-22T10:57:00.260Z,2.17
2018-06-22T10:59:29.338Z,2.37
2018-06-22T11:01:58.457Z,2.20
2018-06-22T11:04:27.369Z,2.00
2018-06-22T11:06:56.257Z,3.03
2018-06-22T11:09:25.237Z,1.70
2018-06-22T11:11:54.309Z,2.27
2018-06-22T11:14:23.288Z,2.73
2018-06-22T11:16:52.264Z,2.70
2018-06-22T11:19:21.179Z,2.43
2018-06-22T11:21:50.168Z,2.30
2018-06-22T11:24:19.190Z,2.90
2018-06-22T11:26:48.259Z,1.93
2018-06-22T11:29:17.189Z,2.00
2018-06-22T11:31:46.195Z,2.73
2018-06-22T11:34:15.172Z,2.15
2018-06-22T11:36:44.052Z,2.50
2018-06-22T11:39:12.966Z,2.50
2018-06-22T11:41:42.381Z,3.70
2018-06-22T11:44:12.158Z,2.60
2018-06-22T11:46:41.303Z,2.02
2018-06-22T11:49:10.206Z,2.25
2018-06-22T11:51:39.334Z,2.40
2018-06-22T11:54:08.255Z,2.33
2018-06-22T11:56:38.125Z,2.20
2018-06-22T11:59:07.273Z,1.77
2018-06-22T12:01:36.567Z,2.10
2018-06-22T12:04:05.711Z,1.85
2018-06-22T12:06:35.477Z,2.60
2018-06-22T12:09:06.450Z,1.77
2018-06-22T12:11:35.360Z,2.30
2018-06-22T12:14:06.168Z,1.93
2018-06-22T12:16:36.504Z,2.57
2018-06-22T12:19:05.554Z,3.17
2018-06-22T12:21:34.473Z,2.10
2018-06-22T12:24:03.882Z,2.33
2018-06-22T12:26:32.833Z,2.20
2018-06-22T12:29:01.753Z,1.90
2018-06-22T12:31:30.592Z,2.43
2018-06-22T12:34:03.441Z,2.20
2018-06-22T12:36:32.274Z,2.00
2018-06-22T12:39:01.541Z,4.23
2018-06-22T12:41:30.662Z,2.63
2018-06-22T12:43:59.590Z,1.90
2018-06-22T12:46:35.260Z,2.10
2018-06-22T12:49:05.010Z,2.50
2018-06-22T12:51:33.963Z,3.20
2018-06-22T12:54:03.088Z,3.00
2018-06-22T12:56:31.967Z,2.50
2018-06-22T12:59:01.056Z,2.77
2018-06-22T13:01:30.038Z,2.50
2018-06-22T13:03:59.182Z,2.22
2018-06-22T13:06:30.474Z,2.57
2018-06-22T13:08:59.452Z,2.67
2018-06-22T13:11:30.709Z,2.77
2018-06-22T13:13:59.640Z,2.70
2018-06-22T13:16:28.606Z,4.27
2018-06-22T13:18:57.504Z,3.67
2018-06-22T13:21:26.451Z,2.70
2018-06-22T13:23:55.434Z,2.57
2018-06-22T13:26:24.436Z,2.67
2018-06-22T13:28:53.421Z,2.67
2018-06-22T13:31:22.327Z,2.80
2018-06-22T13:33:51.265Z,2.60
2018-06-22T13:36:20.350Z,2.30
2018-06-22T13:38:49.405Z,3.20
2018-06-22T13:41:18.408Z,2.30
2018-06-22T13:43:47.287Z,2.03
2018-06-22T13:46:16.122Z,2.30
2018-06-22T13:48:46.076Z,2.37
2018-06-22T13:51:18.178Z,2.60
2018-06-22T13:53:47.051Z,2.17
2018-06-22T13:56:15.935Z,2.00
2018-06-22T13:58:44.850Z,1.93
2018-06-22T14:01:13.917Z,2.63
2018-06-22T14:03:48.009Z,2.90
2018-06-22T14:06:22.123Z,2.40
2018-06-22T14:08:51.120Z,2.80
2018-06-22T14:11:20.073Z,2.47
2018-06-22T14:13:48.986Z,2.25
2018-06-22T14:16:17.966Z,2.77
2018-06-22T14:18:46.833Z,2.42
2018-06-22T14:21:15.732Z,3.72
2018-06-22T14:23:44.615Z,2.92
2018-06-22T14:26:17.893Z,2.70
2018-06-22T14:28:46.928Z,2.33
2018-06-22T14:31:16.168Z,2.37
2018-06-22T14:33:57.686Z,3.47
2018-06-22T14:36:40.134Z,3.57
2018-06-22T14:39:09.937Z,1.80
2018-06-22T14:41:43.617Z,4.17
2018-06-22T14:44:12.500Z,2.50
2018-06-22T14:46:41.479Z,2.37
2018-06-22T14:49:10.394Z,3.33
2018-06-22T14:51:43.338Z,2.17
2018-06-22T14:54:20.318Z,2.70
2018-06-22T14:56:56.601Z,2.30
2018-06-22T14:59:32.766Z,2.20
2018-06-22T15:02:09.434Z,2.10
2018-06-22T15:04:44.897Z,2.98
2018-06-22T15:07:22.440Z,2.67
2018-06-22T15:09:53.732Z,3.23
2018-06-22T15:12:22.776Z,2.20
2018-06-22T15:14:59.164Z,1.97
2018-06-22T15:17:37.794Z,2.17
2018-06-22T15:20:09.726Z,1.87
2018-06-22T15:22:38.692Z,2.50
2018-06-22T15:25:09.859Z,2.30
2018-06-22T15:27:38.758Z,2.50
2018-06-22T15:30:11.856Z,3.00
2018-06-22T15:32:44.235Z,4.10
2018-06-22T15:35:19.687Z,2.80
2018-06-22T15:37:53.944Z,2.70
2018-06-22T15:41:27.302Z,3.10
2018-06-22T15:44:01.530Z,3.47
2018-06-22T15:46:39.587Z,3.37
2018-06-22T15:49:14.069Z,3.77
2018-06-22T15:51:49.770Z,2.57
2018-06-22T15:54:27.392Z,3.00
2018-06-22T15:57:01.319Z,3.08
2018-06-22T15:59:30.518Z,2.90
2018-06-22T16:02:04.077Z,2.00
2018-06-22T16:04:32.955Z,3.60
2018-06-22T16:07:01.913Z,3.33
2018-06-22T16:09:31.050Z,3.00
2018-06-22T16:12:05.150Z,3.40
2018-06-22T16:14:39.139Z,3.00
2018-06-22T16:17:13.243Z,2.53
2018-06-22T16:20:50.245Z,3.45
2018-06-22T16:23:24.310Z,2.87
2018-06-22T16:25:58.357Z,2.73
2018-06-22T16:28:27.469Z,3.27
2018-06-22T16:30:56.342Z,2.90
2018-06-22T16:33:25.202Z,4.70
2018-06-22T16:35:54.070Z,3.03
2018-06-22T16:38:22.961Z,2.67
2018-06-22T16:40:51.882Z,2.57
2018-06-22T16:43:20.814Z,3.10
2018-06-22T16:45:49.714Z,3.17
2018-06-22T16:48:19.311Z,2.90
2018-06-22T16:50:48.230Z,2.70
2018-06-22T16:53:17.721Z,2.72
2018-06-22T16:55:46.586Z,3.10
2018-06-22T16:58:20.702Z,2.92
2018-06-22T17:00:51.109Z,3.77
2018-06-22T17:03:20.656Z,3.47
2018-06-22T17:05:49.636Z,3.00
2018-06-22T17:08:23.950Z,3.10
2018-06-22T17:12:00.061Z,3.50
2018-06-22T17:14:34.006Z,3.70
2018-06-22T17:17:08.092Z,3.60
2018-06-22T17:19:36.975Z,2.87
2018-06-22T17:22:05.869Z,3.07
2018-06-22T17:24:34.761Z,2.97
2018-06-22T17:27:03.689Z,2.93
2018-06-22T17:29:32.640Z,2.43
2018-06-22T17:32:01.553Z,3.20
2018-06-22T17:34:30.501Z,2.80
2018-06-22T17:36:59.398Z,3.80
2018-06-22T17:39:28.316Z,3.87
2018-06-22T17:41:57.138Z,3.10
2018-06-22T17:44:26.069Z,3.35
2018-06-22T17:46:55.015Z,2.77
2018-06-22T17:49:23.891Z,4.60
2018-06-22T17:51:52.762Z,3.67
2018-06-22T17:54:21.674Z,2.90
2018-06-22T17:56:50.649Z,2.40
2018-06-22T17:59:24.661Z,3.00
2018-06-22T18:01:58.678Z,4.27
2018-06-22T18:04:32.761Z,2.60
2018-06-22T18:07:07.505Z,2.50
2018-06-22T18:09:41.718Z,4.53
2018-06-22T18:12:15.835Z,2.40
2018-06-22T18:14:44.780Z,2.30
2018-06-22T18:17:14.046Z,2.72
2018-06-22T18:19:42.972Z,3.52
2018-06-22T18:22:11.916Z,3.40
2018-06-22T18:24:40.818Z,2.20
2018-06-22T18:27:09.698Z,2.30
2018-06-22T18:29:38.519Z,2.25
2018-06-22T18:32:07.484Z,3.23
2018-06-22T18:34:39.402Z,2.47
2018-06-22T18:37:08.305Z,2.47
2018-06-22T18:39:37.235Z,2.50
2018-06-22T18:42:06.116Z,2.17
2018-06-22T18:44:35.037Z,4.17
2018-06-22T18:47:04.092Z,3.10
2018-06-22T18:49:32.936Z,2.57
2018-06-22T18:52:06.851Z,5.33
2018-06-22T18:54:40.864Z,3.20
2018-06-22T18:57:14.768Z,3.20
2018-06-22T18:59:47.851Z,2.90
2018-06-22T19:02:22.046Z,2.90
2018-06-22T19:04:51.074Z,3.27
2018-06-22T19:07:20.001Z,3.15
2018-06-22T19:09:49.250Z,2.87
2018-06-22T19:12:18.504Z,3.53
2018-06-22T19:14:47.561Z,3.08
2018-06-22T19:17:16.622Z,2.50
2018-06-22T19:19:45.728Z,3.27
2018-06-22T19:22:14.931Z,2.20
2018-06-22T19:24:45.036Z,3.02
2018-06-22T19:27:15.412Z,2.20
2018-06-22T19:29:49.151Z,2.35
2018-06-22T19:32:18.213Z,2.33
2018-06-22T19:34:52.490Z,2.50
2018-06-22T19:37:22.494Z,2.80
2018-06-22T19:39:51.761Z,2.20
2018-06-22T19:42:20.767Z,3.33
2018-06-22T19:44:54.913Z,3.33
2018-06-22T19:47:28.989Z,2.80
2018-06-22T19:50:03.171Z,2.93
2018-06-22T19:52:39.133Z,3.40
2018-06-22T19:55:11.124Z,3.10
2018-06-22T19:57:40.044Z,3.35
2018-06-22T20:00:17.793Z,3.10
2018-06-22T20:02:57.222Z,3.20
2018-06-22T20:05:26.958Z,3.50
2018-06-22T20:07:56.029Z,3.10
2018-06-22T20:10:25.083Z,3.98
2018-06-22T20:12:55.524Z,3.27
2018-06-22T20:15:34.758Z,4.92
2018-06-22T20:18:15.018Z,3.40
2018-06-22T20:20:52.279Z,3.43
2018-06-22T20:23:34.481Z,3.90
2018-06-22T20:26:03.765Z,4.90
2018-06-22T20:28:33.104Z,4.22
2018-06-22T20:31:02.164Z,3.20
2018-06-22T20:33:31.418Z,3.40
2018-06-22T20:36:05.588Z,4.25
2018-06-22T20:38:40.007Z,4.20
2018-06-22T20:41:14.847Z,3.80
2018-06-22T20:43:49.157Z,4.77
2018-06-22T20:46:23.764Z,3.90
2018-06-22T20:48:57.938Z,3.80
2018-06-22T20:51:31.101Z,3.40
2018-06-22T20:54:02.625Z,5.00
2018-06-22T20:56:31.570Z,4.37
2018-06-22T20:59:00.632Z,4.42
2018-06-22T21:01:29.647Z,4.47
2018-06-22T21:03:58.579Z,4.40
2018-06-22T21:06:27.537Z,5.03
2018-06-22T21:08:57.126Z,5.13
2018-06-22T21:11:26.132Z,5.83
2018-06-22T21:13:55.687Z,4.27
2018-06-22T21:16:24.541Z,5.40
2018-06-22T21:18:53.764Z,3.80
2018-06-22T21:21:27.629Z,3.80
2018-06-22T21:23:56.542Z,5.28
2018-06-22T21:26:25.441Z,4.83
2018-06-22T21:30:02.311Z,5.47
2018-06-22T21:32:37.030Z,4.90
2018-06-22T21:35:11.247Z,4.53
2018-06-22T21:37:45.539Z,4.92
2018-06-22T21:40:14.649Z,4.30
2018-06-22T21:42:43.757Z,4.63
2018-06-22T21:45:13.282Z,4.40
2018-06-22T21:47:42.287Z,5.20
2018-06-22T21:50:12.818Z,5.57
2018-06-22T21:52:41.747Z,6.05
2018-06-22T21:55:11.628Z,5.80
2018-06-22T21:57:40.590Z,4.47
2018-06-22T22:00:11.889Z,4.07
2018-06-22T22:02:40.860Z,4.20
2018-06-22T22:05:10.133Z,4.50
2018-06-22T22:07:39.151Z,3.97
2018-06-22T22:10:08.108Z,4.07
2018-06-22T22:12:45.007Z,4.33
2018-06-22T22:15:21.829Z,4.22
2018-06-22T22:17:51.039Z,5.60
2018-06-22T22:20:19.954Z,4.00
2018-06-22T22:22:49.062Z,4.73
2018-06-22T22:25:17.988Z,4.77
2018-06-22T22:27:46.893Z,3.50
2018-06-22T22:30:16.202Z,5.27
2018-06-22T22:32:45.170Z,4.63
2018-06-22T22:35:15.510Z,4.20
2018-06-22T22:37:44.472Z,5.40
2018-06-22T22:40:13.496Z,3.47
2018-06-22T22:42:42.887Z,5.00
2018-06-22T22:45:11.815Z,5.20
2018-06-22T22:47:42.389Z,3.60
2018-06-22T22:50:11.407Z,4.07
2018-06-22T22:52:40.788Z,4.60
2018-06-22T22:55:09.851Z,5.58
2018-06-22T22:57:38.740Z,5.08
2018-06-22T23:00:20.443Z,4.40
2018-06-22T23:03:00.227Z,4.20
2018-06-22T23:05:29.573Z,4.10
2018-06-22T23:08:00.081Z,3.67
2018-06-22T23:10:29.080Z,4.07
2018-06-22T23:12:58.073Z,4.80
2018-06-22T23:15:27.029Z,5.37
2018-06-22T23:17:55.905Z,4.60
2018-06-22T23:20:24.881Z,4.50
2018-06-22T23:23:05.359Z,4.40
2018-06-22T23:25:34.409Z,4.50
2018-06-22T23:28:03.356Z,4.60
2018-06-22T23:30:32.326Z,4.17
2018-06-22T23:33:01.225Z,6.00
2018-06-22T23:35:30.140Z,5.63
2018-06-22T23:37:59.089Z,4.30
2018-06-22T23:40:28.010Z,4.90
2018-06-22T23:42:56.986Z,4.30
2018-06-22T23:45:25.902Z,5.33
2018-06-22T23:47:54.864Z,4.93
2018-06-22T23:50:23.794Z,5.47
2018-06-22T23:52:52.749Z,6.55
2018-06-22T23:55:21.647Z,5.70
2018-06-22T23:57:50.549Z,5.80
